sensor_id;sensor_type;location;lat;lon;timestamp;P1;P4;P2;P0;N10;N4;N25;N1;N05;TS
74330;SPS30;62749;51.982;5.916;2023-04-12T00:00:21;5.63;5.47;4.67;3.48;27.93;27.89;27.70;26.60;21.53;0.76
74330;SPS30;62749;51.982;5.916;2023-04-12T00:02:50;5.28;5.14;4.44;3.39;27.20;27.16;26.99;26.03;21.21;0.73
74330;SPS30;62749;51.982;5.916;2023-04-12T00:05:20;5.28;5.13;4.43;3.36;26.95;26.91;26.74;25.76;20.96;0.74
74330;SPS30;62749;51.982;5.916;2023-04-12T00:07:52;5.73;5.57;4.74;3.52;28.30;28.26;28.06;26.93;21.78;0.75
74330;SPS30;62749;51.982;5.916;2023-04-12T00:10:21;6.06;5.87;4.92;3.53;28.37;28.33;28.10;26.81;21.46;0.76
74330;SPS30;62749;51.982;5.916;2023-04-12T00:12:51;6.43;6.22;5.18;3.68;29.60;29.55;29.30;27.91;22.27;0.76
74330;SPS30;62749;51.982;5.916;2023-04-12T00:15:23;6.49;6.28;5.20;3.65;29.39;29.34;29.08;27.64;21.98;0.80
74330;SPS30;62749;51.982;5.916;2023-04-12T00:17:52;6.18;5.99;5.05;3.67;29.50;29.45;29.23;27.95;22.46;0.77
74330;SPS30;62749;51.982;5.916;2023-04-12T00:20:22;5.49;5.33;4.52;3.33;26.77;26.73;26.54;25.44;20.53;0.74
74330;SPS30;62749;51.982;5.916;2023-04-12T00:22:52;5.41;5.25;4.50;3.37;27.04;27.00;26.82;25.78;20.90;0.74
74330;SPS30;62749;51.982;5.916;2023-04-12T00:25:22;5.84;5.66;4.75;3.44;27.62;27.58;27.36;26.14;20.97;0.77
74330;SPS30;62749;51.982;5.916;2023-04-12T00:27:52;7.26;7.02;5.78;4.01;32.29;32.23;31.93;30.29;24.00;0.79
74330;SPS30;62749;51.982;5.916;2023-04-12T00:30:24;6.15;5.97;5.05;3.70;29.75;29.70;29.48;28.24;22.75;0.74
74330;SPS30;62749;51.982;5.916;2023-04-12T00:32:53;6.60;6.39;5.33;3.82;30.67;30.62;30.37;28.96;23.15;0.76
74330;SPS30;62749;51.982;5.916;2023-04-12T00:35:22;6.41;6.20;5.13;3.60;28.92;28.87;28.61;27.19;21.60;0.78
74330;SPS30;62749;51.982;5.916;2023-04-12T00:37:52;5.86;5.68;4.75;3.41;27.41;27.37;27.15;25.90;20.73;0.77
74330;SPS30;62749;51.982;5.916;2023-04-12T00:40:21;6.39;6.19;5.18;3.72;29.90;29.85;29.61;28.26;22.62;0.76
74330;SPS30;62749;51.982;5.916;2023-04-12T00:42:51;6.00;5.81;4.87;3.49;28.06;28.02;27.79;26.52;21.23;0.75
74330;SPS30;62749;51.982;5.916;2023-04-12T00:45:20;5.56;5.39;4.51;3.23;25.99;25.95;25.74;24.55;19.65;0.78
74330;SPS30;62749;51.982;5.916;2023-04-12T00:47:52;6.21;6.01;5.01;3.56;28.62;28.57;28.33;26.99;21.54;0.78
74330;SPS30;62749;51.982;5.916;2023-04-12T00:50:22;5.04;4.88;4.08;2.93;23.55;23.52;23.33;22.26;17.81;0.77
74330;SPS30;62749;51.982;5.916;2023-04-12T00:52:52;5.20;5.03;4.18;2.96;23.84;23.80;23.59;22.46;17.91;0.77
74330;SPS30;62749;51.982;5.916;2023-04-12T00:55:23;5.23;5.06;4.21;2.98;23.98;23.94;23.74;22.60;18.02;0.77
74330;SPS30;62749;51.982;5.916;2023-04-12T00:57:53;5.89;5.68;4.65;3.20;25.78;25.73;25.49;24.13;19.06;0.79
74330;SPS30;62749;51.982;5.916;2023-04-12T01:00:22;5.69;5.50;4.54;3.17;25.47;25.42;25.19;23.91;18.97;0.76
74330;SPS30;62749;51.982;5.916;2023-04-12T01:02:55;6.17;5.94;4.77;3.15;25.34;25.29;25.01;23.49;18.29;0.81
74330;SPS30;62749;51.982;5.916;2023-04-12T01:05:27;5.75;5.53;4.39;2.82;22.74;22.69;22.42;20.94;16.15;0.82
74330;SPS30;62749;51.982;5.916;2023-04-12T01:08:00;6.18;5.95;4.82;3.24;26.05;26.00;25.73;24.25;18.99;0.76
74330;SPS30;62749;51.982;5.916;2023-04-12T01:10:40;5.41;5.22;4.22;2.83;22.75;22.70;22.47;21.16;16.56;0.77
74330;SPS30;62749;51.982;5.916;2023-04-12T01:13:20;5.65;5.44;4.38;2.89;23.31;23.26;23.01;21.62;16.84;0.77
74330;SPS30;62749;51.982;5.916;2023-04-12T01:15:59;6.02;5.78;4.57;2.90;23.40;23.34;23.06;21.49;16.50;0.82
74330;SPS30;62749;51.982;5.916;2023-04-12T01:18:39;7.02;6.74;5.32;3.37;27.18;27.12;26.78;24.95;19.14;0.80
74330;SPS30;62749;51.982;5.916;2023-04-12T01:21:18;5.78;5.55;4.40;2.81;22.64;22.59;22.31;20.82;16.01;0.80
74330;SPS30;62749;51.982;5.916;2023-04-12T01:24:10;5.66;5.44;4.32;2.78;22.42;22.37;22.11;20.66;15.94;0.80
74330;SPS30;62749;51.982;5.916;2023-04-12T01:26:54;6.10;5.87;4.69;3.05;24.57;24.52;24.24;22.70;17.59;0.81
74330;SPS30;62749;51.982;5.916;2023-04-12T01:29:30;6.49;6.24;4.96;3.20;25.79;25.73;25.43;23.78;18.36;0.80
74330;SPS30;62749;51.982;5.916;2023-04-12T01:32:00;6.50;6.24;4.90;3.07;24.80;24.74;24.43;22.71;17.35;0.81
74330;SPS30;62749;51.982;5.916;2023-04-12T01:34:32;5.88;5.64;4.42;2.77;22.34;22.29;22.00;20.44;15.60;0.81
74330;SPS30;62749;51.982;5.916;2023-04-12T01:37:03;5.72;5.48;4.28;2.65;21.40;21.35;21.07;19.53;14.85;0.82
74330;SPS30;62749;51.982;5.916;2023-04-12T01:39:34;7.07;6.79;5.39;3.46;27.91;27.85;27.52;25.71;19.82;0.78
74330;SPS30;62749;51.982;5.916;2023-04-12T01:42:04;6.56;6.30;4.98;3.16;25.49;25.43;25.12;23.41;17.97;0.77
74330;SPS30;62749;51.982;5.916;2023-04-12T01:44:36;6.87;6.59;5.19;3.27;26.38;26.31;25.98;24.18;18.51;0.78
74330;SPS30;62749;51.982;5.916;2023-04-12T01:47:05;6.22;5.97;4.72;3.00;24.16;24.11;23.81;22.19;17.04;0.80
74330;SPS30;62749;51.982;5.916;2023-04-12T01:49:35;7.04;6.78;5.49;3.68;29.65;29.59;29.29;27.60;21.61;0.74
74330;SPS30;62749;51.982;5.916;2023-04-12T01:52:17;5.59;5.38;4.34;2.89;23.27;23.23;22.98;21.62;16.88;0.75
74330;SPS30;62749;51.982;5.916;2023-04-12T01:54:49;6.50;6.25;5.01;3.29;26.52;26.47;26.17;24.56;19.09;0.77
74330;SPS30;62749;51.982;5.916;2023-04-12T02:00:14;6.62;6.38;5.14;3.42;27.54;27.48;27.19;25.58;19.97;0.77
74330;SPS30;62749;51.982;5.916;2023-04-12T02:02:45;6.26;6.03;4.88;3.27;26.30;26.25;25.98;24.47;19.15;0.76
74330;SPS30;62749;51.982;5.916;2023-04-12T02:05:15;6.23;6.00;4.82;3.18;25.60;25.55;25.27;23.73;18.47;0.77
74330;SPS30;62749;51.982;5.916;2023-04-12T02:07:46;5.87;5.65;4.60;3.11;25.03;24.98;24.73;23.34;18.33;0.75
74330;SPS30;62749;51.982;5.916;2023-04-12T02:10:20;6.80;6.57;5.41;3.76;30.27;30.22;29.95;28.41;22.52;0.72
74330;SPS30;62749;51.982;5.916;2023-04-12T02:12:57;5.07;4.90;4.04;2.81;22.57;22.53;22.33;21.18;16.78;0.75
74330;SPS30;62749;51.982;5.916;2023-04-12T02:15:30;6.24;6.02;4.91;3.34;26.90;26.85;26.58;25.12;19.77;0.75
74330;SPS30;62749;51.982;5.916;2023-04-12T02:17:59;6.43;6.22;5.17;3.66;29.42;29.37;29.12;27.71;22.09;0.72
74330;SPS30;62749;51.982;5.916;2023-04-12T02:20:28;5.91;5.72;4.73;3.31;26.65;26.61;26.37;25.06;19.91;0.72
74330;SPS30;62749;51.982;5.916;2023-04-12T02:22:58;5.37;5.19;4.27;2.95;23.77;23.73;23.51;22.29;17.64;0.73
74330;SPS30;62749;51.982;5.916;2023-04-12T02:25:27;5.54;5.34;4.34;2.94;23.67;23.62;23.39;22.07;17.34;0.75
74330;SPS30;62749;51.982;5.916;2023-04-12T02:27:58;6.86;6.60;5.33;3.56;28.63;28.57;28.27;26.61;20.79;0.77
74330;SPS30;62749;51.982;5.916;2023-04-12T02:30:30;7.05;6.79;5.50;3.69;29.68;29.62;29.31;27.61;21.62;0.75
74330;SPS30;62749;51.982;5.916;2023-04-12T02:32:59;5.83;5.60;4.49;2.94;23.67;23.62;23.35;21.90;17.00;0.79
74330;SPS30;62749;51.982;5.916;2023-04-12T02:35:29;6.43;6.18;4.92;3.19;25.72;25.67;25.37;23.74;18.36;0.80
74330;SPS30;62749;51.982;5.916;2023-04-12T02:37:59;6.42;6.18;4.94;3.24;26.08;26.02;25.73;24.13;18.73;0.77
74330;SPS30;62749;51.982;5.916;2023-04-12T02:40:33;5.62;5.43;4.45;3.07;24.73;24.69;24.46;23.17;18.31;0.73
74330;SPS30;62749;51.982;5.916;2023-04-12T02:43:02;5.38;5.18;4.20;2.83;22.78;22.74;22.51;21.22;16.64;0.75
74330;SPS30;62749;51.982;5.916;2023-04-12T02:45:34;5.25;5.06;4.07;2.70;21.78;21.74;21.51;20.22;15.78;0.76
74330;SPS30;62749;51.982;5.916;2023-04-12T02:48:04;6.19;5.95;4.72;3.04;24.49;24.44;24.15;22.57;17.41;0.79
74330;SPS30;62749;51.982;5.916;2023-04-12T02:50:34;6.32;6.07;4.84;3.13;25.23;25.18;24.89;23.28;18.00;0.79
74330;SPS30;62749;51.982;5.916;2023-04-12T02:53:04;6.12;5.89;4.74;3.15;25.36;25.31;25.04;23.54;18.36;0.77
74330;SPS30;62749;51.982;5.916;2023-04-12T02:55:34;5.54;5.33;4.29;2.84;22.89;22.85;22.60;21.24;16.56;0.79
74330;SPS30;62749;51.982;5.916;2023-04-12T02:58:04;9.37;8.98;7.01;4.32;34.90;34.81;34.35;31.82;24.15;0.81
74330;SPS30;62749;51.982;5.916;2023-04-12T03:00:36;8.45;8.08;6.26;3.80;30.69;30.61;30.18;27.85;20.99;0.80
74330;SPS30;62749;51.982;5.916;2023-04-12T03:03:07;7.81;7.48;5.79;3.51;28.32;28.25;27.85;25.69;19.35;0.81
74330;SPS30;62749;51.982;5.916;2023-04-12T03:05:37;7.97;7.62;5.85;3.46;27.97;27.89;27.48;25.22;18.81;0.81
74330;SPS30;62749;51.982;5.916;2023-04-12T03:08:07;7.93;7.58;5.81;3.44;27.77;27.69;27.28;25.03;18.66;0.81
74330;SPS30;62749;51.982;5.916;2023-04-12T03:10:37;7.37;7.05;5.44;3.26;26.36;26.29;25.91;23.85;17.89;0.82
74330;SPS30;62749;51.982;5.916;2023-04-12T03:13:06;7.32;6.98;5.31;3.07;24.83;24.76;24.37;22.24;16.42;0.85
74330;SPS30;62749;51.982;5.916;2023-04-12T03:15:38;8.27;7.90;6.06;3.58;28.94;28.86;28.43;26.08;19.44;0.84
74330;SPS30;62749;51.982;5.916;2023-04-12T03:18:08;7.82;7.47;5.73;3.38;27.31;27.24;26.83;24.60;18.33;0.83
74330;SPS30;62749;51.982;5.916;2023-04-12T03:20:38;8.35;7.98;6.12;3.62;29.26;29.18;28.74;26.38;19.67;0.82
74330;SPS30;62749;51.982;5.916;2023-04-12T03:23:08;7.98;7.62;5.82;3.40;27.46;27.39;26.96;24.67;18.29;0.84
74330;SPS30;62749;51.982;5.916;2023-04-12T03:25:38;7.43;7.11;5.50;3.33;26.89;26.81;26.44;24.38;18.36;0.82
74330;SPS30;62749;51.982;5.916;2023-04-12T03:28:09;8.18;7.84;6.11;3.76;30.33;30.25;29.85;27.63;20.94;0.81
74330;SPS30;62749;51.982;5.916;2023-04-12T03:30:41;9.21;8.82;6.86;4.19;33.81;33.72;33.26;30.74;23.23;0.82
74330;SPS30;62749;51.982;5.916;2023-04-12T03:33:11;8.72;8.34;6.48;3.94;31.83;31.75;31.31;28.91;21.83;0.84
74330;SPS30;62749;51.982;5.916;2023-04-12T03:35:40;7.35;7.05;5.53;3.46;27.89;27.82;27.46;25.51;19.46;0.82
74330;SPS30;62749;51.982;5.916;2023-04-12T03:38:10;8.03;7.71;6.09;3.86;31.14;31.06;30.68;28.59;21.94;0.80
74330;SPS30;62749;51.982;5.916;2023-04-12T03:40:39;7.64;7.33;5.81;3.71;29.94;29.87;29.51;27.54;21.19;0.80
74330;SPS30;62749;51.982;5.916;2023-04-12T03:43:09;8.25;7.91;6.20;3.86;31.17;31.09;30.69;28.49;21.72;0.83
74330;SPS30;62749;51.982;5.916;2023-04-12T03:45:41;7.78;7.46;5.81;3.58;28.89;28.82;28.43;26.32;19.96;0.83
74330;SPS30;62749;51.982;5.916;2023-04-12T03:48:11;7.90;7.59;6.05;3.92;31.60;31.53;31.16;29.16;22.55;0.79
74330;SPS30;62749;51.982;5.916;2023-04-12T03:50:41;6.79;6.54;5.29;3.55;28.61;28.55;28.26;26.63;20.85;0.74
74330;SPS30;62749;51.982;5.916;2023-04-12T03:53:13;6.84;6.59;5.31;3.53;28.40;28.34;28.04;26.37;20.57;0.72
74330;SPS30;62749;51.982;5.916;2023-04-12T03:55:52;6.75;6.50;5.26;3.52;28.37;28.32;28.02;26.40;20.66;0.74
74330;SPS30;62749;51.982;5.916;2023-04-12T03:58:21;9.00;8.65;6.94;4.56;36.76;36.69;36.28;34.05;26.47;0.74
74330;SPS30;62749;51.982;5.916;2023-04-12T04:00:53;7.86;7.53;5.88;3.63;29.27;29.19;28.81;26.68;20.26;0.77
74330;SPS30;62749;51.982;5.916;2023-04-12T04:03:25;7.23;6.94;5.48;3.48;28.04;27.98;27.63;25.75;19.76;0.75
74330;SPS30;62749;51.982;5.916;2023-04-12T04:05:55;7.53;7.22;5.68;3.57;28.81;28.74;28.38;26.40;20.19;0.76
74330;SPS30;62749;51.982;5.916;2023-04-12T04:08:25;7.89;7.55;5.87;3.57;28.87;28.79;28.40;26.23;19.81;0.79
74330;SPS30;62749;51.982;5.916;2023-04-12T04:10:55;7.56;7.24;5.65;3.48;28.07;28.00;27.62;25.58;19.40;0.77
74330;SPS30;62749;51.982;5.916;2023-04-12T04:13:25;7.05;6.75;5.25;3.22;25.98;25.91;25.56;23.65;17.90;0.78
74330;SPS30;62749;51.982;5.916;2023-04-12T04:15:58;7.38;7.06;5.48;3.34;26.97;26.90;26.53;24.51;18.51;0.79
74330;SPS30;62749;51.982;5.916;2023-04-12T04:18:30;7.90;7.56;5.83;3.50;28.29;28.21;27.81;25.61;19.22;0.80
74330;SPS30;62749;51.982;5.916;2023-04-12T04:21:01;6.86;6.58;5.15;3.21;25.91;25.84;25.51;23.68;18.04;0.77
74330;SPS30;62749;51.982;5.916;2023-04-12T04:23:32;7.86;7.52;5.87;3.62;29.21;29.14;28.75;26.63;20.21;0.77
74330;SPS30;62749;51.982;5.916;2023-04-12T04:26:04;7.62;7.29;5.60;3.32;26.85;26.78;26.38;24.23;18.10;0.80
74330;SPS30;62749;51.982;5.916;2023-04-12T04:28:35;8.68;8.30;6.36;3.76;30.38;30.30;29.85;27.38;20.41;0.80
74330;SPS30;62749;51.982;5.916;2023-04-12T04:31:09;6.82;6.54;5.13;3.20;25.85;25.79;25.46;23.64;18.03;0.76
74330;SPS30;62749;51.982;5.916;2023-04-12T04:33:42;8.42;8.06;6.28;3.85;31.09;31.01;30.59;28.30;21.43;0.78
74330;SPS30;62749;51.982;5.916;2023-04-12T04:36:12;9.04;8.65;6.69;4.04;32.65;32.56;32.10;29.60;22.27;0.80
74330;SPS30;62749;51.982;5.916;2023-04-12T04:38:43;9.26;8.88;6.93;4.29;34.59;34.50;34.05;31.55;23.97;0.77
74330;SPS30;62749;51.982;5.916;2023-04-12T04:41:13;8.51;8.15;6.35;3.91;31.53;31.46;31.03;28.72;21.77;0.76
74330;SPS30;62749;51.982;5.916;2023-04-12T04:43:42;9.10;8.71;6.73;4.05;32.68;32.59;32.13;29.59;22.23;0.79
74330;SPS30;62749;51.982;5.916;2023-04-12T04:46:16;8.35;7.97;6.09;3.55;28.69;28.60;28.16;25.76;19.09;0.83
74330;SPS30;62749;51.982;5.916;2023-04-12T04:48:47;9.84;9.39;7.11;4.06;32.82;32.73;32.19;29.30;21.51;0.83
74330;SPS30;62749;51.982;5.916;2023-04-12T04:51:20;8.73;8.32;6.28;3.55;28.77;28.68;28.20;25.62;18.73;0.84
74330;SPS30;62749;51.982;5.916;2023-04-12T04:53:50;8.83;8.41;6.30;3.49;28.23;28.14;27.65;24.98;18.06;0.86
74330;SPS30;62749;51.982;5.916;2023-04-12T04:56:19;9.22;8.81;6.73;3.95;31.92;31.83;31.34;28.70;21.32;0.80
74330;SPS30;62749;51.982;5.916;2023-04-12T04:58:50;9.72;9.31;7.29;4.53;36.55;36.46;35.98;33.38;25.40;0.78
74330;SPS30;62749;51.982;5.916;2023-04-12T05:01:22;7.70;7.39;5.88;3.79;30.58;30.51;30.16;28.19;21.77;0.75
74330;SPS30;62749;51.982;5.916;2023-04-12T05:03:53;6.96;6.69;5.34;3.47;27.99;27.93;27.62;25.86;20.03;0.73
74330;SPS30;62749;51.982;5.916;2023-04-12T05:06:23;7.94;7.64;6.12;4.00;32.25;32.18;31.82;29.83;23.16;0.71
74330;SPS30;62749;51.982;5.916;2023-04-12T05:08:52;8.17;7.85;6.24;4.03;32.46;32.39;32.01;29.92;23.10;0.72
74330;SPS30;62749;51.982;5.916;2023-04-12T05:11:22;7.59;7.28;5.71;3.57;28.79;28.72;28.35;26.34;20.09;0.75
74330;SPS30;62749;51.982;5.916;2023-04-12T05:13:51;8.92;8.55;6.66;4.09;33.03;32.94;32.50;30.08;22.79;0.74
74330;SPS30;62749;51.982;5.916;2023-04-12T05:16:24;8.60;8.23;6.36;3.83;30.97;30.89;30.45;28.06;21.10;0.77
74330;SPS30;62749;51.982;5.916;2023-04-12T05:18:54;9.59;9.18;7.10;4.29;34.68;34.59;34.10;31.45;23.67;0.76
74330;SPS30;62749;51.982;5.916;2023-04-12T05:21:23;9.07;8.69;6.77;4.16;33.61;33.53;33.08;30.62;23.21;0.75
74330;SPS30;62749;51.982;5.916;2023-04-12T05:23:53;8.24;7.91;6.25;3.97;32.04;31.97;31.58;29.43;22.60;0.73
74330;SPS30;62749;51.982;5.916;2023-04-12T05:26:23;7.23;6.93;5.46;3.44;27.78;27.71;27.37;25.47;19.50;0.73
74330;SPS30;62749;51.982;5.916;2023-04-12T05:28:53;8.15;7.82;6.17;3.89;31.40;31.33;30.94;28.80;22.06;0.71
74330;SPS30;62749;51.982;5.916;2023-04-12T05:31:25;7.27;6.99;5.59;3.66;29.48;29.41;29.09;27.27;21.16;0.70
74330;SPS30;62749;51.982;5.916;2023-04-12T05:33:55;6.82;6.56;5.27;3.48;28.00;27.94;27.64;25.95;20.20;0.71
74330;SPS30;62749;51.982;5.916;2023-04-12T05:36:24;7.35;7.07;5.68;3.75;30.19;30.13;29.80;27.99;21.79;0.73
74330;SPS30;62749;51.982;5.916;2023-04-12T05:38:54;8.91;8.57;6.85;4.47;36.02;35.94;35.54;33.30;25.82;0.72
74330;SPS30;62749;51.982;5.916;2023-04-12T05:41:23;7.41;7.12;5.68;3.69;29.75;29.68;29.34;27.48;21.27;0.72
74330;SPS30;62749;51.982;5.916;2023-04-12T05:43:53;8.08;7.75;6.11;3.86;31.10;31.03;30.64;28.52;21.84;0.76
74330;SPS30;62749;51.982;5.916;2023-04-12T05:46:25;9.96;9.56;7.54;4.78;38.53;38.44;37.97;35.36;27.12;0.75
74330;SPS30;62749;51.982;5.916;2023-04-12T05:48:54;8.63;8.32;6.77;4.59;36.96;36.89;36.52;34.48;27.10;0.69
74330;SPS30;62749;51.982;5.916;2023-04-12T05:51:24;8.35;8.05;6.54;4.42;35.55;35.49;35.13;33.14;26.01;0.68
74330;SPS30;62749;51.982;5.916;2023-04-12T05:53:53;7.49;7.21;5.82;3.88;31.27;31.20;30.88;29.06;22.71;0.71
74330;SPS30;62749;51.982;5.916;2023-04-12T05:56:23;7.84;7.54;6.06;3.99;32.16;32.09;31.74;29.80;23.19;0.72
74330;SPS30;62749;51.982;5.916;2023-04-12T05:58:52;8.43;8.11;6.52;4.30;34.64;34.57;34.19;32.11;25.00;0.72
74330;SPS30;62749;51.982;5.916;2023-04-12T06:01:25;8.17;7.88;6.41;4.34;34.94;34.87;34.52;32.59;25.61;0.71
74330;SPS30;62749;51.982;5.916;2023-04-12T06:03:58;7.46;7.18;5.81;3.89;31.28;31.22;30.90;29.09;22.76;0.72
74330;SPS30;62749;51.982;5.916;2023-04-12T06:06:27;7.14;6.86;5.51;3.62;29.16;29.10;28.78;27.01;21.00;0.73
74330;SPS30;62749;51.982;5.916;2023-04-12T06:08:57;8.42;8.10;6.53;4.33;34.85;34.78;34.41;32.35;25.22;0.69
74330;SPS30;62749;51.982;5.916;2023-04-12T06:11:27;6.91;6.66;5.41;3.65;29.37;29.32;29.02;27.38;21.48;0.70
74330;SPS30;62749;51.982;5.916;2023-04-12T06:13:58;7.89;7.58;6.06;3.95;31.80;31.74;31.38;29.39;22.78;0.74
74330;SPS30;62749;51.982;5.916;2023-04-12T06:16:41;10.24;9.83;7.77;4.95;39.92;39.83;39.34;36.69;28.19;0.74
74330;SPS30;62749;51.982;5.916;2023-04-12T06:19:10;7.87;7.56;6.01;3.87;31.18;31.11;30.74;28.73;22.17;0.73
74330;SPS30;62749;51.982;5.916;2023-04-12T06:21:39;7.14;6.86;5.46;3.53;28.44;28.37;28.04;26.23;20.26;0.73
74330;SPS30;62749;51.982;5.916;2023-04-12T06:24:09;7.58;7.28;5.82;3.80;30.62;30.55;30.21;28.31;21.95;0.74
74330;SPS30;62749;51.982;5.916;2023-04-12T06:26:38;8.28;7.95;6.30;4.03;32.53;32.46;32.07;29.94;23.05;0.75
74330;SPS30;62749;51.982;5.916;2023-04-12T06:29:11;8.25;7.92;6.31;4.07;32.83;32.76;32.38;30.28;23.40;0.75
74330;SPS30;62749;51.982;5.916;2023-04-12T06:31:44;7.42;7.15;5.79;3.88;31.27;31.21;30.89;29.11;22.80;0.73
74330;SPS30;62749;51.982;5.916;2023-04-12T06:34:14;7.84;7.54;6.03;3.93;31.69;31.62;31.26;29.30;22.71;0.75
74330;SPS30;62749;51.982;5.916;2023-04-12T06:36:44;8.68;8.32;6.55;4.12;33.23;33.15;32.73;30.45;23.29;0.77
74330;SPS30;62749;51.982;5.916;2023-04-12T06:39:13;9.38;9.00;7.12;4.53;36.57;36.48;36.04;33.61;25.83;0.73
74330;SPS30;62749;51.982;5.916;2023-04-12T06:41:43;7.52;7.22;5.72;3.66;29.49;29.42;29.07;27.13;20.87;0.75
74330;SPS30;62749;51.982;5.916;2023-04-12T06:44:13;8.30;7.96;6.29;3.99;32.19;32.12;31.72;29.56;22.69;0.78
74330;SPS30;62749;51.982;5.916;2023-04-12T06:46:45;7.28;7.01;5.62;3.70;29.80;29.74;29.41;27.61;21.47;0.74
74330;SPS30;62749;51.982;5.916;2023-04-12T06:51:48;7.42;7.15;5.78;3.86;31.11;31.05;30.73;28.94;22.64;0.71
74330;SPS30;62749;51.982;5.916;2023-04-12T06:54:17;7.56;7.26;5.78;3.74;30.16;30.10;29.75;27.83;21.51;0.75
74330;SPS30;62749;51.982;5.916;2023-04-12T06:56:46;8.02;7.69;6.06;3.82;30.83;30.76;30.38;28.27;21.65;0.77
74330;SPS30;62749;51.982;5.916;2023-04-12T06:59:16;7.88;7.57;6.03;3.91;31.51;31.44;31.08;29.08;22.49;0.76
74330;SPS30;62749;51.982;5.916;2023-04-12T07:01:48;6.92;6.66;5.36;3.55;28.56;28.50;28.19;26.49;20.64;0.73
74330;SPS30;62749;51.982;5.916;2023-04-12T07:04:17;6.77;6.52;5.26;3.50;28.19;28.14;27.84;26.19;20.46;0.73
74330;SPS30;62749;51.982;5.916;2023-04-12T07:06:47;6.13;5.91;4.81;3.26;26.25;26.20;25.94;24.50;19.26;0.74
74330;SPS30;62749;51.982;5.916;2023-04-12T07:09:16;6.66;6.42;5.27;3.63;29.17;29.12;28.84;27.31;21.58;0.70
74330;SPS30;62749;51.982;5.916;2023-04-12T07:11:45;6.47;6.25;5.13;3.55;28.55;28.50;28.23;26.75;21.16;0.70
74330;SPS30;62749;51.982;5.916;2023-04-12T07:14:20;5.91;5.70;4.68;3.23;25.95;25.91;25.66;24.31;19.21;0.71
74330;SPS30;62749;51.982;5.916;2023-04-12T07:16:52;6.68;6.44;5.27;3.62;29.14;29.09;28.81;27.27;21.52;0.71
74330;SPS30;62749;51.982;5.916;2023-04-12T07:19:21;6.12;5.92;4.94;3.52;28.32;28.28;28.04;26.73;21.36;0.68
74330;SPS30;62749;51.982;5.916;2023-04-12T07:21:50;5.81;5.64;4.78;3.51;28.22;28.18;27.97;26.81;21.61;0.68
74330;SPS30;62749;51.982;5.916;2023-04-12T07:24:20;5.74;5.57;4.68;3.39;27.28;27.23;27.02;25.83;20.74;0.69
74330;SPS30;62749;51.982;5.916;2023-04-12T07:26:51;5.91;5.72;4.77;3.39;27.27;27.23;27.00;25.72;20.53;0.70
74330;SPS30;62749;51.982;5.916;2023-04-12T07:29:21;6.99;6.77;5.66;4.06;32.64;32.59;32.33;30.84;24.68;0.70
74330;SPS30;62749;51.982;5.916;2023-04-12T07:31:53;6.42;6.22;5.22;3.77;30.32;30.28;30.04;28.69;23.01;0.70
74330;SPS30;62749;51.982;5.916;2023-04-12T07:34:23;6.15;5.95;4.98;3.57;28.70;28.65;28.42;27.11;21.70;0.70
74330;SPS30;62749;51.982;5.916;2023-04-12T07:36:52;6.34;6.13;5.12;3.65;29.34;29.29;29.05;27.68;22.12;0.71
74330;SPS30;62749;51.982;5.916;2023-04-12T07:39:22;7.27;7.04;5.92;4.28;34.42;34.37;34.10;32.58;26.15;0.69
74330;SPS30;62749;51.982;5.916;2023-04-12T07:41:51;6.54;6.36;5.43;4.04;32.45;32.41;32.19;30.91;25.02;0.69
74330;SPS30;62749;51.982;5.916;2023-04-12T07:44:20;6.29;6.11;5.21;3.87;31.08;31.03;30.82;29.58;23.93;0.69
74330;SPS30;62749;51.982;5.916;2023-04-12T07:46:50;6.65;6.45;5.44;3.97;31.91;31.86;31.62;30.26;24.34;0.70
74330;SPS30;62749;51.982;5.916;2023-04-12T07:49:22;7.05;6.83;5.75;4.16;33.44;33.39;33.13;31.67;25.42;0.70
74330;SPS30;62749;51.982;5.916;2023-04-12T07:51:51;6.72;6.52;5.53;4.06;32.62;32.58;32.34;30.98;24.98;0.71
74330;SPS30;62749;51.982;5.916;2023-04-12T07:54:22;6.93;6.72;5.67;4.13;33.21;33.16;32.91;31.49;25.32;0.72
74330;SPS30;62749;51.982;5.916;2023-04-12T07:56:57;6.56;6.37;5.39;3.96;31.84;31.79;31.56;30.23;24.37;0.72
74330;SPS30;62749;51.982;5.916;2023-04-12T08:02:22;6.17;5.98;5.02;3.64;29.23;29.18;28.95;27.67;22.21;0.71
74330;SPS30;62749;51.982;5.916;2023-04-12T08:04:55;7.15;6.92;5.77;4.11;33.04;32.98;32.71;31.17;24.89;0.71
74330;SPS30;62749;51.982;5.916;2023-04-12T08:07:24;6.35;6.16;5.17;3.73;29.95;29.91;29.67;28.34;22.72;0.68
74330;SPS30;62749;51.982;5.916;2023-04-12T08:09:54;6.79;6.59;5.56;4.06;32.59;32.54;32.29;30.90;24.86;0.67
74330;SPS30;62749;51.982;5.916;2023-04-12T08:12:24;6.62;6.42;5.45;4.03;32.34;32.30;32.06;30.75;24.82;0.69
74330;SPS30;62749;51.982;5.916;2023-04-12T08:14:53;6.01;5.84;4.99;3.72;29.84;29.80;29.60;28.43;23.01;0.71
74330;SPS30;62749;51.982;5.916;2023-04-12T08:17:23;7.72;7.48;6.27;4.51;36.27;36.21;35.92;34.29;27.47;0.71
74330;SPS30;62749;51.982;5.916;2023-04-12T08:19:56;7.48;7.24;6.09;4.40;35.38;35.33;35.05;33.49;26.87;0.70
74330;SPS30;62749;51.982;5.916;2023-04-12T08:22:25;7.39;7.16;6.04;4.40;35.36;35.31;35.04;33.52;26.96;0.70
74330;SPS30;62749;51.982;5.916;2023-04-12T08:24:55;6.94;6.73;5.64;4.06;32.66;32.61;32.35;30.89;24.75;0.71
74330;SPS30;62749;51.982;5.916;2023-04-12T08:27:25;7.38;7.18;6.19;4.70;37.73;37.68;37.44;36.07;29.35;0.70
74330;SPS30;62749;51.982;5.916;2023-04-12T08:29:56;6.73;6.55;5.65;4.30;34.51;34.47;34.25;33.01;26.87;0.70
74330;SPS30;62749;51.982;5.916;2023-04-12T08:32:25;6.58;6.39;5.41;3.97;31.86;31.81;31.57;30.24;24.37;0.73
74330;SPS30;62749;51.982;5.916;2023-04-12T08:34:58;6.74;6.54;5.55;4.08;32.78;32.73;32.49;31.14;25.11;0.72
74330;SPS30;62749;51.982;5.916;2023-04-12T08:37:27;7.02;6.82;5.78;4.25;34.11;34.06;33.81;32.40;26.12;0.72
74330;SPS30;62749;51.982;5.916;2023-04-12T08:39:57;7.24;7.02;5.94;4.36;35.00;34.95;34.69;33.22;26.76;0.73
74330;SPS30;62749;51.982;5.916;2023-04-12T08:42:27;6.89;6.68;5.67;4.18;33.56;33.52;33.27;31.89;25.73;0.74
74330;SPS30;62749;51.982;5.916;2023-04-12T08:44:58;6.45;6.26;5.30;3.90;31.31;31.27;31.04;29.74;23.98;0.75
74330;SPS30;62749;51.982;5.916;2023-04-12T08:47:32;6.57;6.37;5.38;3.94;31.64;31.59;31.36;30.02;24.17;0.75
74330;SPS30;62749;51.982;5.916;2023-04-12T08:50:07;6.75;6.56;5.63;4.23;33.93;33.88;33.65;32.36;26.26;0.73
74330;SPS30;62749;51.982;5.916;2023-04-12T08:52:39;6.10;5.94;5.14;3.92;31.46;31.42;31.22;30.11;24.53;0.74
74330;SPS30;62749;51.982;5.916;2023-04-12T08:55:09;6.08;5.92;5.09;3.84;30.80;30.76;30.56;29.41;23.90;0.76
74330;SPS30;62749;51.982;5.916;2023-04-12T08:57:39;6.09;5.92;5.07;3.80;30.53;30.49;30.28;29.12;23.61;0.75
74330;SPS30;62749;51.982;5.916;2023-04-12T09:00:10;6.73;6.52;5.46;3.92;31.51;31.46;31.20;29.78;23.84;0.79
74330;SPS30;62749;51.982;5.916;2023-04-12T09:02:42;6.53;6.30;5.18;3.57;28.76;28.70;28.44;26.94;21.30;0.81
74330;SPS30;62749;51.982;5.916;2023-04-12T09:05:16;6.26;6.05;4.98;3.45;27.78;27.73;27.47;26.05;20.63;0.82
74330;SPS30;62749;51.982;5.916;2023-04-12T09:07:48;6.29;6.10;5.15;3.77;30.26;30.21;29.98;28.70;23.10;0.78
74330;SPS30;62749;51.982;5.916;2023-04-12T09:10:28;5.86;5.72;4.97;3.83;30.76;30.73;30.55;29.51;24.11;0.73
74330;SPS30;62749;51.982;5.916;2023-04-12T09:13:01;5.35;5.21;4.52;3.47;27.83;27.80;27.63;26.67;21.76;0.75
74330;SPS30;62749;51.982;5.916;2023-04-12T09:15:32;5.59;5.44;4.70;3.57;28.69;28.65;28.47;27.44;22.34;0.75
74330;SPS30;62749;51.982;5.916;2023-04-12T09:18:03;5.64;5.49;4.75;3.63;29.11;29.07;28.89;27.86;22.70;0.74
74330;SPS30;62749;51.982;5.916;2023-04-12T09:20:37;5.99;5.83;5.06;3.89;31.21;31.17;30.99;29.91;24.42;0.74
74330;SPS30;62749;51.982;5.916;2023-04-12T09:23:15;5.45;5.31;4.58;3.47;27.88;27.84;27.67;26.65;21.69;0.76
74330;SPS30;62749;51.982;5.916;2023-04-12T09:25:46;6.59;6.42;5.59;4.30;34.53;34.49;34.29;33.11;27.06;0.75
74330;SPS30;62749;51.982;5.916;2023-04-12T09:28:19;6.09;5.92;5.06;3.79;30.44;30.40;30.19;29.02;23.52;0.77
74330;SPS30;62749;51.982;5.916;2023-04-12T09:30:51;6.97;6.79;5.89;4.52;36.28;36.24;36.02;34.77;28.38;0.74
74330;SPS30;62749;51.982;5.916;2023-04-12T09:33:21;6.28;6.10;5.20;3.88;31.14;31.10;30.88;29.66;24.01;0.77